Time;durP1;ratioP1;P1;durP2;ratioP2;P2;SDS_P1;SDS_P2;PMS_P1;PMS_P2;Temp;Humidity;BMP_temperature;BMP_pressure;BME280_temperature;BME280_humidity;BME280_pressure;Samples;Min_cycle;Max_cycle;Signal;HPM_P1;HPM_P2
2021/07/05 00:00:06;;;;;;;2.68;1.93;;;;;;;24.65;63.61;99562.59;460935;112;922934;-73
2021/07/05 00:01:11;;;;;;;2.34;2.04;;;;;;;24.66;63.63;99561.45;465104;109;922544;-73
2021/07/05 00:02:17;;;;;;;3.44;2.28;;;;;;;24.64;63.63;99558.19;456266;112;922568;-73
2021/07/05 00:03:20;;;;;;;1.93;1.80;;;;;;;24.64;63.61;99554.59;457114;112;922623;-73
2021/07/05 00:04:24;;;;;;;3.51;2.08;;;;;;;24.64;63.63;99560.16;465295;110;922641;-73
2021/07/05 00:05:27;;;;;;;2.45;1.99;;;;;;;24.63;63.64;99564.09;456506;113;930557;-73
2021/07/05 00:06:31;;;;;;;3.18;2.01;;;;;;;24.62;63.66;99560.48;457425;112;922539;-73
2021/07/05 00:07:35;;;;;;;3.54;2.05;;;;;;;24.62;63.64;99565.23;465629;110;922586;-73
2021/07/05 00:08:39;;;;;;;3.47;2.17;;;;;;;24.62;63.71;99562.45;464755;110;930337;-73
2021/07/05 00:09:42;;;;;;;1.98;1.80;;;;;;;24.60;63.73;99561.95;455075;112;930620;-73
2021/07/05 00:10:46;;;;;;;2.19;2.00;;;;;;;24.61;63.73;99558.02;456127;112;930446;-73
2021/07/05 00:11:49;;;;;;;2.55;2.35;;;;;;;24.58;63.73;99565.09;466353;110;922763;-72
2021/07/05 00:12:54;;;;;;;2.31;2.09;;;;;;;24.58;63.76;99564.27;457042;112;930835;-72
2021/07/05 00:13:59;;;;;;;2.07;1.66;;;;;;;24.56;63.73;99556.23;455687;112;933138;-72
2021/07/05 00:15:05;;;;;;;3.09;1.97;;;;;;;24.53;63.80;99562.48;466284;110;924755;-75
2021/07/05 00:16:10;;;;;;;2.52;2.03;;;;;;;24.52;63.82;99560.84;457169;112;922830;-73
2021/07/05 00:17:13;;;;;;;2.87;1.98;;;;;;;24.49;63.86;99562.31;458615;112;924000;-72
2021/07/05 00:18:17;;;;;;;3.39;1.94;;;;;;;24.46;63.95;99560.20;466108;112;923960;-73
2021/07/05 00:19:21;;;;;;;3.25;2.29;;;;;;;24.44;63.99;99565.28;465292;112;933494;-72
2021/07/05 00:20:29;;;;;;;2.99;1.99;;;;;;;24.43;64.07;99565.59;465016;110;930286;-72
2021/07/05 00:21:32;;;;;;;3.63;1.86;;;;;;;24.41;64.17;99565.95;465398;110;924747;-73
2021/07/05 00:22:36;;;;;;;4.22;1.86;;;;;;;24.39;64.29;99564.64;464388;110;925865;-70
2021/07/05 00:23:40;;;;;;;2.98;2.35;;;;;;;24.36;64.39;99566.13;463172;113;931082;-74
2021/07/05 00:24:43;;;;;;;4.17;2.36;;;;;;;24.33;64.48;99558.41;462850;113;933745;-72
2021/07/05 00:25:47;;;;;;;3.46;2.14;;;;;;;24.32;64.59;99564.31;463735;110;931955;-73
2021/07/05 00:26:51;;;;;;;3.06;2.50;;;;;;;24.30;64.69;99559.09;463086;111;932864;-73
2021/07/05 00:27:56;;;;;;;5.68;2.00;;;;;;;24.27;64.76;99562.52;462924;113;922891;-73
2021/07/05 00:29:00;;;;;;;3.88;2.39;;;;;;;24.26;64.89;99562.88;462696;110;925644;-72
2021/07/05 00:30:05;;;;;;;1.95;1.85;;;;;;;24.24;64.99;99563.20;463770;110;925771;-71
2021/07/05 00:31:09;;;;;;;2.93;2.47;;;;;;;24.22;65.06;99557.13;465035;113;931789;-72
2021/07/05 00:32:14;;;;;;;3.27;2.25;;;;;;;24.19;65.15;99552.23;463028;113;928388;-73
2021/07/05 00:33:18;;;;;;;2.51;2.30;;;;;;;24.18;65.25;99552.55;461072;112;922433;-72
2021/07/05 00:34:22;;;;;;;2.27;1.94;;;;;;;24.17;65.27;99553.66;462589;110;923978;-72
2021/07/05 00:35:26;;;;;;;2.23;2.01;;;;;;;24.15;65.28;99555.98;461174;113;926367;-73
2021/07/05 00:36:32;;;;;;;2.55;2.32;;;;;;;24.13;65.34;99553.52;459309;112;924484;-73
2021/07/05 00:37:36;;;;;;;2.24;1.98;;;;;;;24.11;65.43;99553.83;461165;112;924513;-73
2021/07/05 00:38:40;;;;;;;4.29;2.21;;;;;;;24.11;65.46;99555.80;462581;110;931603;-73
2021/07/05 00:39:43;;;;;;;2.20;1.99;;;;;;;24.10;65.54;99545.80;461629;113;924700;-74
2021/07/05 00:40:47;;;;;;;2.17;2.02;;;;;;;24.08;65.52;99545.33;462750;113;922563;-74
2021/07/05 00:41:51;;;;;;;2.40;2.12;;;;;;;24.07;65.56;99544.50;462522;110;922494;-74
2021/07/05 00:42:58;;;;;;;2.46;2.28;;;;;;;24.06;65.57;99553.18;463119;110;930321;-74
2021/07/05 00:44:01;;;;;;;2.58;2.01;;;;;;;24.06;65.58;99542.86;461882;113;930201;-72
2021/07/05 00:45:07;;;;;;;2.86;2.26;;;;;;;24.04;65.65;99545.14;462752;113;922864;-74
2021/07/05 00:46:11;;;;;;;2.39;2.05;;;;;;;24.04;65.65;99547.11;463283;110;930545;-73
2021/07/05 00:47:14;;;;;;;3.78;2.28;;;;;;;24.02;65.68;99547.46;463897;110;922587;-74
2021/07/05 00:48:18;;;;;;;2.16;1.96;;;;;;;24.03;65.70;99549.11;464415;113;922448;-74
2021/07/05 00:49:21;;;;;;;3.48;2.30;;;;;;;24.02;65.73;99541.07;464481;112;923038;-74
2021/07/05 00:50:29;;;;;;;2.81;2.08;;;;;;;24.01;65.79;99533.86;464422;110;930204;-73
2021/07/05 00:51:32;;;;;;;2.66;2.30;;;;;;;24.00;65.82;99544.17;464644;110;922710;-74
2021/07/05 00:52:38;;;;;;;6.58;2.47;;;;;;;24.00;65.80;99548.92;465911;113;922906;-73
2021/07/05 00:53:42;;;;;;;2.72;1.81;;;;;;;23.99;65.85;99541.71;465178;110;930471;-72
2021/07/05 00:54:46;;;;;;;2.79;2.13;;;;;;;23.98;65.85;99548.45;461323;110;922529;-72
2021/07/05 00:55:50;;;;;;;2.39;2.07;;;;;;;23.95;65.91;99549.91;460913;113;923058;-74
2021/07/05 00:56:53;;;;;;;2.92;2.23;;;;;;;23.93;65.93;99549.41;461202;113;930195;-73
2021/07/05 00:57:57;;;;;;;2.41;2.25;;;;;;;23.93;66.01;99554.16;460347;113;922667;-74
2021/07/05 00:59:01;;;;;;;3.34;2.31;;;;;;;23.92;66.06;99552.55;461455;112;923853;-73
2021/07/05 01:00:09;;;;;;;2.32;2.12;;;;;;;23.91;66.09;99556.47;461751;110;922793;-74
2021/07/05 01:01:13;;;;;;;2.13;1.92;;;;;;;23.88;66.15;99549.58;461900;113;922922;-74
2021/07/05 01:02:18;;;;;;;3.09;2.19;;;;;;;23.88;66.19;99552.36;462016;113;922864;-74
2021/07/05 01:03:22;;;;;;;2.51;2.06;;;;;;;23.88;66.23;99551.54;462127;110;924123;-72
2021/07/05 01:04:25;;;;;;;2.71;2.46;;;;;;;23.86;66.34;99548.28;462627;110;924639;-73
2021/07/05 01:05:29;;;;;;;3.01;2.40;;;;;;;23.86;66.33;99553.86;463231;110;924508;-73
2021/07/05 01:06:35;;;;;;;3.69;2.17;;;;;;;23.85;66.36;99546.64;462916;112;922447;-74
2021/07/05 01:07:39;;;;;;;3.95;2.31;;;;;;;23.83;66.42;99554.49;463938;110;922730;-73
2021/07/05 01:08:43;;;;;;;3.14;2.15;;;;;;;23.81;66.47;99560.41;453842;115;922786;-73
2021/07/05 01:09:46;;;;;;;2.13;1.98;;;;;;;23.81;66.56;99563.20;454135;113;923587;-73
2021/07/05 01:10:50;;;;;;;3.42;2.29;;;;;;;23.81;66.65;99567.94;463287;110;922512;-72
2021/07/05 01:11:54;;;;;;;2.12;1.86;;;;;;;23.79;66.71;99561.88;465096;110;923125;-73
2021/07/05 01:12:58;;;;;;;3.15;2.69;;;;;;;23.77;66.77;99562.19;462718;110;930508;-73
2021/07/05 01:14:02;;;;;;;4.07;2.33;;;;;;;23.77;66.81;99572.50;463879;113;931776;-73
2021/07/05 01:15:08;;;;;;;4.46;2.11;;;;;;;23.76;66.85;99570.89;465333;110;924016;-72
2021/07/05 01:16:13;;;;;;;2.96;2.14;;;;;;;23.74;66.90;99573.98;459415;113;924524;-73
2021/07/05 01:17:18;;;;;;;4.28;2.28;;;;;;;23.74;66.90;99567.59;461218;110;924090;-73
2021/07/05 01:18:21;;;;;;;2.52;2.24;;;;;;;23.73;66.91;99568.73;459958;110;922969;-71
2021/07/05 01:19:26;;;;;;;3.82;2.37;;;;;;;23.71;66.89;99574.63;460190;112;931783;-72
2021/07/05 01:20:33;;;;;;;3.52;2.52;;;;;;;23.69;66.92;99566.63;460614;112;932804;-71
2021/07/05 01:21:37;;;;;;;2.67;2.14;;;;;;;23.68;66.97;99564.98;460818;112;923945;-71
2021/07/05 01:22:41;;;;;;;2.86;2.53;;;;;;;23.66;66.97;99566.44;461855;112;925703;-73
2021/07/05 01:23:45;;;;;;;3.28;2.45;;;;;;;23.64;66.98;99564.00;461736;113;926331;-73
2021/07/05 01:24:49;;;;;;;3.29;2.39;;;;;;;23.61;67.05;99564.64;461311;113;923986;-73
2021/07/05 01:25:52;;;;;;;4.62;2.29;;;;;;;23.58;67.11;99570.87;459858;112;924244;-73
2021/07/05 01:26:56;;;;;;;2.58;2.23;;;;;;;23.58;67.19;99572.83;460333;112;930736;-74
2021/07/05 01:28:01;;;;;;;2.51;2.31;;;;;;;23.55;67.26;99563.16;461631;112;922834;-72
2021/07/05 01:29:05;;;;;;;2.88;2.35;;;;;;;23.55;67.34;99568.72;462098;113;923220;-73
2021/07/05 01:30:11;;;;;;;2.28;2.05;;;;;;;23.54;67.35;99577.41;463178;112;922757;-74
2021/07/05 01:31:14;;;;;;;3.84;2.19;;;;;;;23.54;67.40;99577.41;463600;113;930267;-73
2021/07/05 01:32:18;;;;;;;3.00;2.29;;;;;;;23.53;67.42;99584.94;464176;112;922465;-74
2021/07/05 01:33:22;;;;;;;2.26;2.04;;;;;;;23.52;67.39;99583.30;462344;112;930268;-74
2021/07/05 01:34:26;;;;;;;2.88;2.46;;;;;;;23.52;67.44;99576.91;462006;113;929095;-72
2021/07/05 01:35:29;;;;;;;3.02;2.17;;;;;;;23.52;67.47;99576.91;463936;111;927474;-73
2021/07/05 01:36:34;;;;;;;3.79;2.66;;;;;;;23.50;67.51;99563.31;460190;113;922518;-73
2021/07/05 01:37:38;;;;;;;3.34;2.39;;;;;;;23.51;67.56;99575.27;457671;113;930235;-73
2021/07/05 01:38:42;;;;;;;3.05;2.38;;;;;;;23.48;67.51;99564.80;460462;112;922669;-73
2021/07/05 01:39:46;;;;;;;3.67;2.23;;;;;;;23.48;67.51;99564.80;448345;114;922538;-73
2021/07/05 01:41:01;;;;;;;3.76;2.39;;;;;;;23.48;67.65;99557.27;459463;113;922854;-73
2021/07/05 01:42:05;;;;;;;3.01;2.12;;;;;;;23.49;67.69;99575.58;459434;113;922598;-73
2021/07/05 01:43:09;;;;;;;4.28;2.26;;;;;;;23.48;67.67;99562.02;459683;112;923180;-73
2021/07/05 01:44:13;;;;;;;3.60;2.59;;;;;;;23.46;67.70;99567.89;459743;112;922485;-72
2021/07/05 01:45:19;;;;;;;6.37;2.36;;;;;;;23.46;67.75;99570.67;459932;113;930457;-73
2021/07/05 01:46:23;;;;;;;2.93;2.56;;;;;;;23.44;67.80;99564.58;460844;112;930356;-73
2021/07/05 01:47:27;;;;;;;2.94;2.50;;;;;;;23.44;67.82;99574.87;461840;112;923087;-72
2021/07/05 01:48:30;;;;;;;4.75;2.62;;;;;;;23.44;67.87;99570.14;461397;113;922593;-73
2021/07/05 01:49:34;;;;;;;4.77;4.33;;;;;;;23.45;67.90;99570.96;461474;113;923089;-73
2021/07/05 01:50:39;;;;;;;5.20;2.63;;;;;;;23.45;67.84;99571.78;461538;112;930393;-75
2021/07/05 01:51:42;;;;;;;2.70;2.50;;;;;;;23.45;67.84;99574.56;461840;113;922545;-75
2021/07/05 01:52:46;;;;;;;2.64;2.44;;;;;;;23.46;67.82;99565.11;462377;111;930396;-76
2021/07/05 01:53:50;;;;;;;5.36;2.38;;;;;;;23.46;67.78;99573.46;462550;113;924660;-75
2021/07/05 01:54:53;;;;;;;3.26;2.43;;;;;;;23.46;67.72;99567.07;463240;112;926423;-75
2021/07/05 01:55:57;;;;;;;4.19;2.64;;;;;;;23.44;67.71;99559.02;461865;113;931817;-74
2021/07/05 01:57:01;;;;;;;3.68;2.81;;;;;;;23.43;67.75;99571.27;461531;112;932601;-78
2021/07/05 01:58:08;;;;;;;4.83;2.31;;;;;;;23.42;67.79;99558.53;455295;114;933364;-73
2021/07/05 01:59:12;;;;;;;4.24;2.49;;;;;;;23.41;67.76;99568.02;456410;113;924380;-75
2021/07/05 02:00:18;;;;;;;4.27;2.57;;;;;;;23.39;67.81;99566.69;460405;112;925381;-75
2021/07/05 02:01:22;;;;;;;2.99;2.58;;;;;;;23.36;67.90;99559.83;459362;112;926268;-76
2021/07/05 02:02:27;;;;;;;3.01;2.33;;;;;;;23.37;67.99;99557.88;456873;113;924457;-75
2021/07/05 02:03:30;;;;;;;3.58;2.38;;;;;;;23.37;68.00;99561.47;459386;111;931998;-74
2021/07/05 02:04:34;;;;;;;3.42;2.77;;;;;;;23.38;68.00;99554.74;459514;112;924486;-74
2021/07/05 02:05:39;;;;;;;3.99;2.38;;;;;;;23.38;67.99;99545.58;459864;112;922528;-73
2021/07/05 02:06:43;;;;;;;3.27;2.21;;;;;;;23.39;67.97;99564.73;461713;112;922699;-75
2021/07/05 02:07:48;;;;;;;4.55;2.82;;;;;;;23.38;67.90;99563.09;455771;115;925590;-73
2021/07/05 02:08:52;;;;;;;3.24;2.52;;;;;;;23.39;67.91;99552.78;456284;113;924307;-74
2021/07/05 02:09:56;;;;;;;3.12;2.23;;;;;;;23.38;67.94;99563.09;461436;112;922419;-74
2021/07/05 02:11:00;;;;;;;2.77;2.35;;;;;;;23.38;67.99;99543.61;461133;113;927708;-73
2021/07/05 02:12:04;;;;;;;5.30;2.34;;;;;;;23.40;67.91;99546.08;461739;112;925620;-75
2021/07/05 02:13:11;;;;;;;2.91;2.54;;;;;;;23.42;67.93;99549.37;462541;112;930877;-76
2021/07/05 02:14:15;;;;;;;3.06;2.32;;;;;;;23.43;67.90;99556.58;462247;112;922536;-76
2021/07/05 02:15:19;;;;;;;3.21;2.91;;;;;;;23.43;67.82;99551.02;463755;112;925309;-76
2021/07/05 02:16:25;;;;;;;3.31;2.23;;;;;;;23.44;67.78;99547.88;463044;112;924497;-75
2021/07/05 02:17:28;;;;;;;2.78;2.18;;;;;;;23.44;67.75;99559.02;462781;112;924411;-75
2021/07/05 02:18:33;;;;;;;3.01;2.52;;;;;;;23.45;67.78;99554.27;460441;113;924332;-77
2021/07/05 02:19:38;;;;;;;3.25;2.39;;;;;;;23.46;67.77;99550.38;455850;114;924433;-75
2021/07/05 02:20:43;;;;;;;2.77;2.57;;;;;;;23.47;67.76;99546.45;456657;113;924033;-75
2021/07/05 02:21:46;;;;;;;6.07;2.55;;;;;;;23.46;67.70;99550.38;456522;113;925360;-74
2021/07/05 02:22:52;;;;;;;2.39;2.21;;;;;;;23.46;67.67;99551.20;466603;110;924838;-74
2021/07/05 02:23:56;;;;;;;2.74;2.52;;;;;;;23.44;67.65;99539.53;461716;113;931808;-74
2021/07/05 02:25:02;;;;;;;2.93;2.59;;;;;;;23.42;67.69;99541.02;459498;112;924070;-75
2021/07/05 02:26:06;;;;;;;6.03;3.11;;;;;;;23.40;67.76;99541.34;458818;112;925424;-76
2021/07/05 02:27:10;;;;;;;2.92;2.52;;;;;;;23.39;67.71;99544.44;456762;113;923786;-76
2021/07/05 02:28:17;;;;;;;5.06;2.99;;;;;;;23.38;67.73;99549.18;457644;113;925309;-77
2021/07/05 02:29:20;;;;;;;6.09;2.34;;;;;;;23.35;67.78;99535.11;458036;113;932955;-73
2021/07/05 02:30:28;;;;;;;3.44;2.45;;;;;;;23.34;67.87;99537.06;457388;113;922527;-75
2021/07/05 02:31:31;;;;;;;4.02;3.08;;;;;;;23.32;67.96;99542.16;462580;111;922532;-75
2021/07/05 02:32:36;;;;;;;3.18;2.96;;;;;;;23.33;67.94;99545.73;466255;111;922462;-76
2021/07/05 02:33:39;;;;;;;3.32;2.75;;;;;;;23.33;68.03;99540.17;465541;111;924707;-76
2021/07/05 02:34:43;;;;;;;5.21;2.89;;;;;;;23.33;67.95;99554.08;465269;110;924018;-76
2021/07/05 02:35:46;;;;;;;3.37;3.04;;;;;;;23.31;67.99;99554.42;465719;111;925461;-75
2021/07/05 02:36:50;;;;;;;4.09;3.19;;;;;;;23.32;68.07;99552.46;465432;111;924125;-74
2021/07/05 02:37:56;;;;;;;3.96;2.78;;;;;;;23.34;68.06;99547.38;463719;111;930560;-75
2021/07/05 02:38:59;;;;;;;5.82;2.98;;;;;;;23.34;67.99;99558.50;463772;111;922839;-76
2021/07/05 02:40:09;;;;;;;4.44;2.29;;;;;;;23.34;67.99;99562.10;462777;111;922939;-76
2021/07/05 02:41:12;;;;;;;3.11;2.76;;;;;;;23.35;67.95;99558.19;468879;111;930312;-77
2021/07/05 02:42:16;;;;;;;3.47;3.18;;;;;;;23.33;67.97;99556.86;468927;111;922971;-76
2021/07/05 02:43:21;;;;;;;3.60;3.21;;;;;;;23.30;68.00;99561.13;468649;111;922772;-77
2021/07/05 02:44:24;;;;;;;8.83;3.35;;;;;;;23.27;68.02;99553.41;467158;111;922461;-77
2021/07/05 02:45:29;;;;;;;4.87;3.11;;;;;;;23.25;68.10;99564.05;469746;111;923931;-76
2021/07/05 02:46:34;;;;;;;3.37;2.68;;;;;;;23.22;68.16;99559.95;467977;111;932450;-75
2021/07/05 02:47:38;;;;;;;3.26;2.42;;;;;;;23.21;68.20;99566.64;467328;111;924083;-75
2021/07/05 02:48:42;;;;;;;3.40;3.10;;;;;;;23.18;68.19;99555.36;467509;111;923772;-75
2021/07/05 02:49:45;;;;;;;4.35;2.78;;;;;;;23.15;68.28;99562.41;466990;111;924523;-77
2021/07/05 02:50:53;;;;;;;3.66;3.01;;;;;;;23.11;68.39;99566.95;467066;111;922695;-77
2021/07/05 02:51:56;;;;;;;2.88;2.68;;;;;;;23.09;68.46;99577.59;465823;111;922630;-77
2021/07/05 02:53:01;;;;;;;3.82;3.07;;;;;;;23.07;68.57;99568.73;464397;112;924022;-76
2021/07/05 02:54:05;;;;;;;3.14;2.91;;;;;;;23.08;68.99;99564.83;457775;113;931142;-78
2021/07/05 02:55:10;;;;;;;2.94;2.71;;;;;;;23.08;68.99;99564.83;458811;111;923486;-76
2021/07/05 02:56:15;;;;;;;3.22;2.92;;;;;;;23.10;68.64;99565.30;464241;111;924136;-74
2021/07/05 02:57:30;;;;;;;5.97;3.10;;;;;;;23.12;68.63;99553.86;464299;111;925309;-74
2021/07/05 02:58:34;;;;;;;4.18;3.03;;;;;;;23.14;68.55;99565.50;464414;111;933079;-69
2021/07/05 02:59:38;;;;;;;5.49;3.34;;;;;;;23.15;68.44;99564.36;463535;111;924462;-69
2021/07/05 03:00:45;;;;;;;4.99;3.46;;;;;;;23.15;68.46;99562.41;463904;111;922664;-67
2021/07/05 03:01:49;;;;;;;3.57;2.86;;;;;;;23.15;68.49;99562.41;465907;111;926292;-68
2021/07/05 03:02:54;;;;;;;4.78;3.14;;;;;;;23.15;68.47;99562.41;468785;111;924120;-70
2021/07/05 03:03:57;;;;;;;5.69;2.93;;;;;;;23.17;68.53;99568.44;467427;111;923774;-68
2021/07/05 03:05:03;;;;;;;3.68;2.96;;;;;;;23.19;68.57;99568.13;466465;111;932361;-69
2021/07/05 03:06:07;;;;;;;3.76;3.43;;;;;;;23.23;68.54;99574.67;467432;111;931979;-70
2021/07/05 03:07:10;;;;;;;3.31;2.92;;;;;;;23.24;68.51;99570.75;467397;111;924141;-69
2021/07/05 03:08:14;;;;;;;4.41;3.17;;;;;;;23.26;68.48;99571.27;466871;110;924475;-67
2021/07/05 03:09:18;;;;;;;3.16;2.69;;;;;;;23.28;68.47;99564.22;466199;111;924155;-68
2021/07/05 03:10:25;;;;;;;3.40;2.93;;;;;;;23.31;68.39;99568.33;466190;111;922640;-71
2021/07/05 03:11:29;;;;;;;5.90;3.48;;;;;;;23.33;68.41;99568.80;467256;111;922555;-69
2021/07/05 03:12:32;;;;;;;6.18;3.54;;;;;;;23.37;68.33;99569.82;466062;111;922594;-69
2021/07/05 03:13:36;;;;;;;4.85;4.38;;;;;;;23.37;68.19;99564.26;465001;111;922576;-68
2021/07/05 03:14:40;;;;;;;3.48;3.13;;;;;;;23.38;68.16;99565.87;464961;111;924003;-67
2021/07/05 03:15:44;;;;;;;4.71;3.47;;;;;;;23.39;68.11;99564.73;464104;111;924530;-68
2021/07/05 03:16:48;;;;;;;3.57;3.28;;;;;;;23.41;68.04;99559.67;465607;111;923950;-70
2021/07/05 03:17:52;;;;;;;4.78;3.38;;;;;;;23.42;67.91;99560.50;464546;111;926770;-69
2021/07/05 03:18:56;;;;;;;5.02;2.93;;;;;;;23.42;67.93;99550.19;464750;111;922547;-69
2021/07/05 03:20:00;;;;;;;10.89;3.01;;;;;;;23.44;67.93;99560.97;463930;111;922483;-70
2021/07/05 03:21:03;;;;;;;4.66;3.17;;;;;;;23.47;67.91;99546.45;464479;111;923049;-69
2021/07/05 03:22:08;;;;;;;3.99;3.06;;;;;;;23.49;67.87;99550.53;463988;111;922751;-69
2021/07/05 03:23:14;;;;;;;5.04;3.10;;;;;;;23.52;67.78;99549.91;466919;110;930920;-69
2021/07/05 03:24:18;;;;;;;3.84;3.29;;;;;;;23.56;67.75;99550.88;466037;111;922859;-69
2021/07/05 03:25:23;;;;;;;3.21;2.91;;;;;;;23.59;67.66;99553.03;467119;111;922434;-69
2021/07/05 03:26:28;;;;;;;4.40;2.86;;;;;;;23.62;67.57;99557.11;466508;110;922945;-69
2021/07/05 03:27:32;;;;;;;3.50;3.01;;;;;;;23.65;67.53;99554.48;473555;110;922570;-69
2021/07/05 03:28:36;;;;;;;4.56;3.15;;;;;;;23.67;67.41;99563.34;473089;110;930494;-69
2021/07/05 03:29:40;;;;;;;4.28;3.85;;;;;;;23.69;67.25;99561.05;475598;110;922423;-70
2021/07/05 03:30:45;;;;;;;2.99;2.68;;;;;;;23.72;67.20;99565.14;470899;110;930322;-69
2021/07/05 03:31:49;;;;;;;4.07;3.59;;;;;;;23.74;67.13;99551.72;472722;110;922671;-69
2021/07/05 03:32:53;;;;;;;3.89;3.13;;;;;;;23.76;67.03;99551.41;472251;110;922649;-68
2021/07/05 03:33:57;;;;;;;3.52;3.24;;;;;;;23.76;66.91;99551.41;472732;110;922484;-68
2021/07/05 03:35:01;;;;;;;3.08;2.83;;;;;;;23.77;66.87;99550.23;472295;110;924013;-68
2021/07/05 03:36:05;;;;;;;3.46;3.16;;;;;;;23.77;66.75;99544.66;471225;110;924547;-69
2021/07/05 03:37:09;;;;;;;5.50;3.37;;;;;;;23.78;66.74;99537.95;463304;112;932079;-70
2021/07/05 03:38:16;;;;;;;3.87;3.51;;;;;;;23.77;66.73;99542.70;465316;110;922607;-70
2021/07/05 03:39:19;;;;;;;6.37;4.29;;;;;;;23.79;66.81;99542.38;471134;110;931923;-70
2021/07/05 03:40:26;;;;;;;3.55;3.25;;;;;;;23.81;66.81;99546.49;470803;110;924634;-69
2021/07/05 03:41:30;;;;;;;6.27;5.67;;;;;;;23.81;66.77;99545.67;470362;110;923179;-68
2021/07/05 03:42:33;;;;;;;3.91;3.49;;;;;;;23.82;66.77;99538.96;470961;110;924054;-70
2021/07/05 03:43:37;;;;;;;6.53;3.32;;;;;;;23.84;66.77;99545.83;469527;110;924044;-68
2021/07/05 03:44:41;;;;;;;4.82;3.43;;;;;;;23.84;66.74;99540.25;469611;110;926266;-70
2021/07/05 03:45:45;;;;;;;5.78;3.41;;;;;;;23.87;66.75;99534.02;468592;110;924513;-69
2021/07/05 03:46:49;;;;;;;5.54;3.37;;;;;;;23.88;66.71;99529.27;474446;110;931973;-70
2021/07/05 03:47:53;;;;;;;5.65;3.11;;;;;;;23.90;66.67;99535.34;473075;110;924022;-69
2021/07/05 03:48:57;;;;;;;3.90;3.44;;;;;;;23.91;66.61;99531.41;472912;109;924042;-68
2021/07/05 03:50:01;;;;;;;4.03;3.39;;;;;;;23.91;66.62;99539.77;473389;110;923991;-70
2021/07/05 03:51:05;;;;;;;4.25;3.56;;;;;;;23.88;66.48;99540.41;470088;110;923042;-68
2021/07/05 03:52:10;;;;;;;5.99;3.71;;;;;;;23.85;66.60;99541.08;472807;108;925645;-69
2021/07/05 03:53:14;;;;;;;4.06;3.11;;;;;;;23.84;66.73;99536.65;473551;110;924087;-68
2021/07/05 03:54:18;;;;;;;4.35;3.65;;;;;;;23.84;66.74;99553.35;471603;110;932763;-67
2021/07/05 03:55:23;;;;;;;3.95;3.62;;;;;;;23.87;66.71;99552.72;472119;110;924314;-70
2021/07/05 03:56:29;;;;;;;3.78;3.38;;;;;;;23.88;66.74;99551.54;469955;110;924493;-66
2021/07/05 03:57:33;;;;;;;4.46;3.65;;;;;;;23.89;66.75;99555.97;470821;110;924115;-69
2021/07/05 03:58:37;;;;;;;3.44;3.13;;;;;;;23.91;66.74;99545.34;471305;110;932427;-69
2021/07/05 03:59:40;;;;;;;3.80;3.50;;;;;;;23.91;66.63;99543.37;471747;110;924570;-68
2021/07/05 04:00:46;;;;;;;4.56;3.33;;;;;;;23.92;66.57;99552.55;469786;110;930578;-69
2021/07/05 04:01:49;;;;;;;4.60;3.52;;;;;;;23.89;66.42;99550.41;469810;110;924026;-69
2021/07/05 04:02:55;;;;;;;4.01;3.13;;;;;;;23.86;66.47;99553.86;470152;110;932006;-69
2021/07/05 04:03:59;;;;;;;3.84;3.37;;;;;;;23.84;66.57;99547.78;469193;110;925229;-69
2021/07/05 04:05:04;;;;;;;3.47;3.11;;;;;;;23.82;66.63;99541.74;462850;110;930712;-68
2021/07/05 04:06:08;;;;;;;4.17;3.15;;;;;;;23.80;66.66;99541.24;457557;112;922775;-73
2021/07/05 04:07:13;;;;;;;4.34;3.51;;;;;;;23.76;66.80;99538.30;458573;112;924036;-72
2021/07/05 04:08:17;;;;;;;4.16;3.56;;;;;;;23.73;66.94;99538.94;457178;112;931961;-74
2021/07/05 04:09:21;;;;;;;5.64;3.70;;;;;;;23.74;67.04;99539.77;456149;112;924765;-73
2021/07/05 04:10:26;;;;;;;5.78;3.37;;;;;;;23.71;67.13;99534.87;458391;112;923362;-73
2021/07/05 04:11:31;;;;;;;5.44;3.21;;;;;;;23.71;67.20;99512.59;459191;112;922699;-74
2021/07/05 04:12:34;;;;;;;4.01;3.45;;;;;;;23.71;67.23;99515.38;455384;112;922556;-74
2021/07/05 04:13:38;;;;;;;3.90;3.33;;;;;;;23.70;67.18;99503.43;456831;113;930675;-71
2021/07/05 04:14:42;;;;;;;5.39;3.83;;;;;;;23.69;67.21;99510.14;457056;112;922504;-74
2021/07/05 04:15:45;;;;;;;3.48;3.07;;;;;;;23.69;67.29;99504.57;456320;112;930397;-73
2021/07/05 04:16:49;;;;;;;5.54;3.39;;;;;;;23.68;67.30;99495.40;456151;112;930431;-73
2021/07/05 04:17:52;;;;;;;4.47;3.16;;;;;;;23.68;67.42;99489.02;457632;112;922632;-73
2021/07/05 04:18:56;;;;;;;3.84;3.56;;;;;;;23.67;67.41;99482.63;455834;112;930490;-73
2021/07/05 04:20:00;;;;;;;3.96;3.30;;;;;;;23.65;67.44;99490.47;454967;112;922636;-72
2021/07/05 04:21:04;;;;;;;3.87;3.51;;;;;;;23.63;67.53;99483.61;455682;112;922578;-73
2021/07/05 04:22:07;;;;;;;5.09;3.48;;;;;;;23.62;67.62;99481.97;457845;112;923236;-74
2021/07/05 04:23:11;;;;;;;4.37;3.99;;;;;;;23.63;67.55;99490.00;457060;112;922969;-73
2021/07/05 04:24:14;;;;;;;5.64;4.70;;;;;;;23.64;67.52;99483.30;455067;112;923000;-73
2021/07/05 04:25:19;;;;;;;3.86;3.56;;;;;;;23.65;67.53;99482.13;457680;112;922460;-72
2021/07/05 04:26:23;;;;;;;6.59;4.12;;;;;;;23.67;67.46;99474.27;457061;112;930484;-74
2021/07/05 04:27:27;;;;;;;4.01;3.66;;;;;;;23.66;67.41;99471.81;458735;112;925589;-71
2021/07/05 04:28:30;;;;;;;4.17;3.63;;;;;;;23.65;67.38;99479.34;457282;112;932007;-72
2021/07/05 04:29:35;;;;;;;3.60;3.22;;;;;;;23.66;67.46;99482.94;456607;112;932053;-72
2021/07/05 04:30:39;;;;;;;4.78;3.59;;;;;;;23.67;67.54;99473.45;459916;112;930485;-74
2021/07/05 04:31:43;;;;;;;4.09;3.76;;;;;;;23.69;67.58;99477.56;455925;112;922549;-72
2021/07/05 04:32:48;;;;;;;3.67;3.24;;;;;;;23.72;67.52;99486.38;457040;112;930605;-72
2021/07/05 04:33:51;;;;;;;4.49;3.78;;;;;;;23.76;67.44;99492.95;455225;112;932044;-73
2021/07/05 04:34:56;;;;;;;4.40;3.26;;;;;;;23.81;67.21;99495.56;457068;112;922892;-73
2021/07/05 04:36:00;;;;;;;4.65;3.89;;;;;;;23.84;67.09;99504.06;448329;115;922561;-73
2021/07/05 04:37:04;;;;;;;5.27;4.03;;;;;;;23.87;67.05;99505.39;439037;117;922596;-73
2021/07/05 04:38:07;;;;;;;4.39;3.72;;;;;;;23.90;67.00;99505.53;455227;112;922552;-74
2021/07/05 04:39:11;;;;;;;5.45;3.35;;;;;;;23.94;66.97;99500.11;456562;112;932070;-73
2021/07/05 04:40:21;;;;;;;4.82;4.26;;;;;;;23.99;66.92;99513.87;456702;112;931060;-73
2021/07/05 04:41:24;;;;;;;7.91;3.79;;;;;;;24.03;66.82;99518.47;457493;112;922547;-73
2021/07/05 04:42:28;;;;;;;5.79;3.73;;;;;;;24.07;66.71;99515.83;455092;112;924562;-73
2021/07/05 04:43:32;;;;;;;3.60;3.22;;;;;;;24.11;66.64;99516.80;456489;112;925387;-73
2021/07/05 04:44:36;;;;;;;6.66;4.16;;;;;;;24.14;66.57;99516.16;456366;113;926738;-72
2021/07/05 04:45:42;;;;;;;5.70;3.49;;;;;;;24.17;66.52;99520.23;455603;112;924490;-73
2021/07/05 04:46:48;;;;;;;4.37;3.57;;;;;;;24.19;66.35;99529.94;453146;112;924144;-73
2021/07/05 04:47:53;;;;;;;5.30;3.98;;;;;;;24.23;66.22;99525.34;455961;112;924535;-72
2021/07/05 04:48:56;;;;;;;4.11;3.40;;;;;;;24.27;66.15;99531.88;454972;112;924615;-75
2021/07/05 04:50:00;;;;;;;3.71;3.33;;;;;;;24.31;66.01;99523.70;457300;112;923071;-74
2021/07/05 04:51:07;;;;;;;5.62;3.82;;;;;;;24.33;66.04;99530.55;459130;112;930658;-73
2021/07/05 04:52:10;;;;;;;5.76;3.81;;;;;;;24.36;65.97;99529.91;457936;112;923355;-72
2021/07/05 04:53:13;;;;;;;4.42;3.58;;;;;;;24.41;65.88;99534.48;461049;112;922621;-73
2021/07/05 04:54:17;;;;;;;7.11;3.73;;;;;;;24.44;65.83;99533.80;457934;112;930447;-73
2021/07/05 04:55:22;;;;;;;6.50;3.56;;;;;;;24.51;65.51;99536.91;456349;112;923021;-73
2021/07/05 04:56:25;;;;;;;3.99;3.28;;;;;;;24.51;65.51;99536.91;458011;112;930511;-73
2021/07/05 04:57:29;;;;;;;6.37;3.24;;;;;;;24.56;65.40;99538.69;456436;112;923057;-68
2021/07/05 04:58:35;;;;;;;5.24;3.74;;;;;;;24.60;65.29;99539.66;455883;112;930454;-68